METAR Data
IDs: Format: Raw Decoded Include TAF

Data at: 1757 UTC 16 Oct 2021

KSOA 161735Z AUTO 00000G13KT 10SM CLR 18/M02 A3048 RMK AO2
KSOA 161715Z AUTO 06011G18KT 10SM CLR 18/M04 A3048 RMK AO2
KSOA 161655Z AUTO 04013KT 10SM CLR 18/M03 A3049 RMK AO2
KSOA 161635Z AUTO 03012G17KT 10SM CLR 17/M03 A3049 RMK AO2
KSOA 161615Z AUTO 04011G16KT 10SM CLR 17/M02 A3050 RMK AO2
KSOA 161555Z AUTO 00000KT 10SM CLR 17/00 A3050 RMK AO2
KSOA 161535Z AUTO 00000G13KT 10SM CLR 16/01 A3050 RMK AO2
KSOA 161515Z AUTO 08008KT 10SM CLR 15/02 A3050 RMK AO2
KSOA 161455Z AUTO 00000KT 10SM CLR 14/04 A3050 RMK AO2
KSOA 161435Z AUTO 00000KT 10SM CLR 12/05 A3049 RMK AO2
KSOA 161415Z AUTO 00000KT 10SM CLR 11/05 A3049 RMK AO2
KSOA 161355Z AUTO 00000KT 10SM CLR 09/06 A3048 RMK AO2
KSOA 161335Z AUTO 00000KT 10SM CLR 08/06 A3046 RMK AO2
KSOA 161315Z AUTO 00000KT 10SM CLR 07/05 A3045 RMK AO2
KSOA 161255Z AUTO 00000KT 10SM CLR 06/05 A3044 RMK AO2
KSOA 161235Z AUTO 00000KT 10SM CLR 07/05 A3044 RMK AO2
KSOA 161215Z AUTO 00000KT 10SM CLR 07/05 A3043 RMK AO2
KSOA 161155Z AUTO 00000KT 10SM CLR 07/05 A3042 RMK AO2
KSOA 161135Z AUTO 00000KT 10SM CLR 07/05 A3042 RMK AO2
KSOA 161115Z AUTO 00000KT 10SM CLR 07/05 A3040 RMK AO2
KSOA 161055Z AUTO 00000KT 10SM CLR 07/05 A3040 RMK AO2
KSOA 161035Z AUTO 00000KT 10SM CLR 07/05 A3039 RMK AO2
KSOA 161015Z AUTO 00000KT 10SM CLR 07/05 A3039 RMK AO2
KSOA 160955Z AUTO 00000KT 10SM CLR 07/05 A3039 RMK AO2
KSOA 160935Z AUTO 00000KT 10SM CLR 07/05 A3039 RMK AO2
KSOA 160915Z AUTO 00000KT 10SM CLR 08/05 A3039 RMK AO2
KSOA 160855Z AUTO 00000KT 10SM CLR 09/05 A3039 RMK AO2
KSOA 160835Z AUTO 00000KT 10SM CLR 09/06 A3039 RMK AO2
KSOA 160815Z AUTO 00000KT 10SM CLR 10/06 A3038 RMK AO2
KSOA 160755Z AUTO 00000KT 10SM CLR 10/06 A3038 RMK AO2
KSOA 160735Z AUTO 00000KT 10SM CLR 11/06 A3039 RMK AO2
KSOA 160715Z AUTO 02004KT 10SM CLR 12/05 A3039 RMK AO2
KSOA 160655Z AUTO 00000KT 10SM CLR 12/05 A3039 RMK AO2
KSOA 160635Z AUTO 00000KT 10SM CLR 13/05 A3038 RMK AO2
KSOA 160615Z AUTO 00000KT 10SM CLR 13/05 A3037 RMK AO2
KSOA 160555Z AUTO 00000G11KT 10SM CLR 14/05 A3037 RMK AO2
KSOA 160535Z AUTO 03008KT 10SM CLR 15/05 A3037 RMK AO2
KSOA 160515Z AUTO 03005G12KT 10SM CLR 15/05 A3036 RMK AO2
KSOA 160455Z AUTO 00000G11KT 8SM CLR 15/05 A3036 RMK AO2
KSOA 160435Z AUTO 00000KT 2SM HZ CLR 15/05 A3034 RMK AO2 VIS 1 1/4V3
KSOA 160415Z AUTO 00000G10KT 1/2SM HZ VV005 15/05 A3034 RMK AO2
KSOA 160355Z AUTO 00000KT 10SM CLR 15/05 A3033 RMK AO2
KSOA 160335Z AUTO 00000G10KT 10SM CLR 16/06 A3032 RMK AO2
KSOA 160315Z AUTO 00000G13KT 10SM CLR 16/06 A3031 RMK AO2
KSOA 160255Z AUTO 02004G12KT 10SM CLR 16/06 A3029 RMK AO2
KSOA 160235Z AUTO 00000KT 10SM CLR 16/07 A3028 RMK AO2
KSOA 160215Z AUTO 00000KT 10SM CLR 16/07 A3027 RMK AO2
KSOA 160155Z AUTO 00000KT 10SM CLR 17/07 A3026 RMK AO2
KSOA 160135Z AUTO 00000KT 10SM CLR 17/07 A3026 RMK AO2
KSOA 160115Z AUTO 00000G10KT 10SM CLR 18/06 A3025 RMK AO2
KSOA 160055Z AUTO 02008G13KT 10SM CLR 19/06 A3024 RMK AO2
KSOA 160035Z AUTO 02007G13KT 10SM CLR 19/07 A3023 RMK AO2
KSOA 160015Z AUTO 03009G16KT 10SM CLR 20/06 A3022 RMK AO2
KSOA 152355Z AUTO 02012KT 10SM CLR 21/06 A3021 RMK AO2
KSOA 152335Z AUTO 02013G20KT 10SM CLR 21/06 A3020 RMK AO2
KSOA 152315Z AUTO 01015KT 10SM CLR 22/07 A3019 RMK AO2
KSOA 152255Z AUTO 02015KT 10SM CLR 22/07 A3018 RMK AO2
KSOA 152235Z AUTO 03016KT 10SM CLR 23/06 A3018 RMK AO2
KSOA 152215Z AUTO 02017KT 10SM CLR 23/07 A3017 RMK AO2
KSOA 152155Z AUTO 03015KT 10SM CLR 23/07 A3017 RMK AO2
KSOA 152135Z AUTO 01013G19KT 10SM CLR 24/08 A3017 RMK AO2
KSOA 152115Z AUTO 02014G20KT 10SM CLR 24/07 A3017 RMK AO2
KSOA 152055Z AUTO 02013G20KT 10SM CLR 24/09 A3017 RMK AO2
KSOA 152035Z AUTO 35012G19KT 10SM CLR 24/08 A3016 RMK AO2
KSOA 152015Z AUTO 03016G23KT 10SM CLR 24/08 A3016 RMK AO2
KSOA 151955Z AUTO 36011G23KT 10SM CLR 24/09 A3016 RMK AO2
KSOA 151935Z AUTO 02016KT 10SM CLR 24/09 A3016 RMK AO2
KSOA 151910Z AUTO 02015G21KT 10SM CLR 24/09 A3016 RMK AO2
KSOA 151855Z AUTO 01013G19KT 10SM CLR 24/09 A3016 RMK AO2
KSOA 151835Z AUTO 36015KT 10SM CLR 24/09 A3016 RMK AO2
KSOA 151815Z AUTO 36015KT 10SM CLR 24/08 A3016 RMK AO2
KSOA 151755Z AUTO 34012G18KT 10SM CLR 23/08 A3016 RMK AO2
KSOA 151735Z AUTO 34013KT 10SM CLR 23/09 A3016 RMK AO2
KSOA 151715Z AUTO 36010G17KT 10SM CLR 23/08 A3016 RMK AO2
KSOA 151655Z AUTO 36010G16KT 10SM CLR 23/07 A3016 RMK AO2
KSOA 151635Z AUTO 01013KT 10SM CLR 23/06 A3016 RMK AO2
KSOA 151615Z AUTO 36011KT 10SM CLR 22/06 A3015 RMK AO2
KSOA 151555Z AUTO 35014KT 10SM CLR 21/06 A3015 RMK AO2
KSOA 151535Z AUTO 36011KT 10SM CLR 21/06 A3015 RMK AO2
KSOA 151515Z AUTO 34011G16KT 10SM CLR 21/05 A3014 RMK AO2
KSOA 151455Z AUTO 34010G16KT 10SM CLR 21/05 A3013 RMK AO2
KSOA 151435Z AUTO 33007G12KT 10SM CLR 21/08 A3012 RMK AO2
KSOA 151415Z AUTO 31006KT 10SM FEW027 21/16 A3011 RMK AO2
KSOA 151355Z AUTO 00000KT 10SM CLR 20/19 A3008 RMK AO2
KSOA 151335Z AUTO 00000KT 10SM CLR 19/19 A3007 RMK AO2
KSOA 151315Z AUTO 00000KT 9SM CLR 17/17 A3007 RMK AO2
KSOA 151255Z AUTO 00000KT 8SM CLR 17/17 A3006 RMK AO2
KSOA 151235Z AUTO 00000KT 10SM CLR 17/17 A3005 RMK AO2
KSOA 151215Z AUTO 00000KT 10SM FEW060 18/18 A3004 RMK AO2
KSOA 151155Z AUTO 00000KT 10SM FEW060 18/18 A3003 RMK AO2
KSOA 151135Z AUTO 00000KT 10SM CLR 19/19 A3002 RMK AO2
KSOA 151115Z AUTO 00000KT 10SM FEW060 18/18 A3001 RMK AO2
KSOA 151055Z AUTO 00000KT 10SM SCT027 SCT050 SCT065 18/18 A3001 RMK AO2
KSOA 151035Z AUTO 00000KT 10SM FEW020 BKN027 18/18 A3001 RMK AO2
KSOA 151015Z AUTO 00000KT 10SM BKN018 BKN026 18/18 A3000 RMK AO2
KSOA 150955Z AUTO 00000KT 10SM OVC017 17/17 A3000 RMK AO2
KSOA 150935Z AUTO 00000KT 10SM BKN015 17/17 A2999 RMK AO2
KSOA 150915Z AUTO 00000KT 10SM FEW017 17/17 A2999 RMK AO2
KSOA 150855Z AUTO 00000KT 10SM CLR 17/17 A2998 RMK AO2
KSOA 150835Z AUTO 00000KT 10SM CLR 17/17 A2998 RMK AO2
KSOA 150815Z AUTO 00000KT 10SM CLR 17/17 A2999 RMK AO2
KSOA 150755Z AUTO 00000KT 10SM CLR 17/17 A2998 RMK AO2
KSOA 150735Z AUTO 00000KT 10SM CLR 17/17 A2998 RMK AO2
KSOA 150715Z AUTO 00000KT 10SM CLR 17/17 A2997 RMK AO2
KSOA 150655Z AUTO 00000KT 10SM CLR 18/18 A2997 RMK AO2
KSOA 150635Z AUTO 00000KT 10SM CLR 18/18 A2997 RMK AO2
KSOA 150615Z AUTO 00000KT 10SM CLR 18/18 A2997 RMK AO2